Time;durP1;ratioP1;P1;durP2;ratioP2;P2;SDS_P1;SDS_P2;PMS_P1;PMS_P2;Temp;Humidity;BMP_temperature;BMP_pressure;BME280_temperature;BME280_humidity;BME280_pressure;Samples;Min_cycle;Max_cycle;Signal;HPM_P1;HPM_P2
2022/11/19 00:00:47;;;;;;;;;;;;;;;-2.45;97.34;101198.25;2072176;28;35963;-65
2022/11/19 00:01:48;;;;;;;;;;;;;;;-2.45;97.96;101212.25;2071410;28;30375;-65
2022/11/19 00:02:53;;;;;;;;;;;;;;;-2.44;97.60;101197.41;2071989;28;38054;-64
2022/11/19 00:03:55;;;;;;;;;;;;;;;-2.46;97.59;101206.94;2072988;28;19979;-63
2022/11/19 00:04:57;;;;;;;;;;;;;;;-2.46;97.67;101204.34;2072336;28;41553;-63
2022/11/19 00:06:19;;;;;;;;;;;;;;;-2.47;97.99;101198.19;2072045;28;38259;-63
2022/11/19 00:07:21;;;;;;;;;;;;;;;-2.51;98.83;101207.69;2072588;28;33277;-63
2022/11/19 00:08:22;;;;;;;;;;;;;;;-2.45;97.63;101201.75;2072293;28;38706;-63
2022/11/19 00:09:24;;;;;;;;;;;;;;;-2.44;97.72;101213.13;2072054;28;32077;-65
2022/11/19 00:10:25;;;;;;;;;;;;;;;-2.45;96.84;101206.13;2071561;28;39277;-63
2022/11/19 00:12:53;;;;;;;;;;;;;;;-2.46;97.10;101220.06;2072761;28;37725;-65
2022/11/19 00:13:54;;;;;;;;;;;;;;;-2.42;96.74;101211.44;2071645;28;36013;-63
2022/11/19 00:14:57;;;;;;;;;;;;;;;-2.45;96.96;101217.50;2073294;28;19928;-64
2022/11/19 00:16:07;;;;;;;;;;;;;;;-2.46;97.21;101210.47;2072769;28;19933;-63
2022/11/19 00:17:08;;;;;;;;;;;;;;;-2.50;97.72;101208.56;2072434;28;32893;-63
2022/11/19 00:18:10;;;;;;;;;;;;;;;-2.47;97.72;101211.31;2072143;28;37090;-63
2022/11/19 00:19:12;;;;;;;;;;;;;;;-2.52;97.95;101205.91;2072426;28;36591;-63
2022/11/19 00:20:18;;;;;;;;;;;;;;;-2.53;96.61;101206.75;2072086;28;36470;-63
2022/11/19 00:21:20;;;;;;;;;;;;;;;-2.53;97.52;101213.69;2071974;28;37844;-63
2022/11/19 00:22:24;;;;;;;;;;;;;;;-2.56;97.00;101218.88;2072640;28;20063;-64
2022/11/19 00:23:26;;;;;;;;;;;;;;;-2.57;97.86;101217.94;2072479;28;38539;-63
2022/11/19 00:24:28;;;;;;;;;;;;;;;-2.57;97.98;101217.94;2072091;28;34937;-63
2022/11/19 00:25:30;;;;;;;;;;;;;;;-2.59;97.07;101209.16;2072507;28;33019;-63
2022/11/19 00:26:31;;;;;;;;;;;;;;;-2.59;97.27;101218.75;2071376;28;41773;-63
2022/11/19 00:27:33;;;;;;;;;;;;;;;-2.59;97.84;101218.75;2072180;28;25503;-63
2022/11/19 00:28:35;;;;;;;;;;;;;;;-2.61;97.71;101212.56;2072102;28;39111;-63
2022/11/19 00:29:36;;;;;;;;;;;;;;;-2.63;97.88;101216.88;2072305;28;38654;-63
2022/11/19 00:30:38;;;;;;;;;;;;;;;-2.70;97.71;101216.63;2072027;28;35154;-63
2022/11/19 00:31:48;;;;;;;;;;;;;;;-2.65;98.24;101218.53;2075010;28;37524;-62
2022/11/19 00:32:50;;;;;;;;;;;;;;;-2.67;96.91;101214.94;2079922;28;38724;-64
2022/11/19 00:33:53;;;;;;;;;;;;;;;-2.64;97.72;101217.69;2080809;28;29412;-63
2022/11/19 00:34:54;;;;;;;;;;;;;;;-2.66;96.91;101222.00;2079995;28;34872;-64
2022/11/19 00:35:57;;;;;;;;;;;;;;;-2.71;97.42;101217.50;2081341;28;22927;-63
2022/11/19 00:37:01;;;;;;;;;;;;;;;-2.69;97.40;101214.94;2081035;28;19920;-64
2022/11/19 00:38:02;;;;;;;;;;;;;;;-2.67;97.37;101231.59;2080677;28;31967;-63
2022/11/19 00:39:04;;;;;;;;;;;;;;;-2.68;96.66;101219.31;2079687;28;38193;-63
2022/11/19 00:40:07;;;;;;;;;;;;;;;-2.69;97.05;101221.06;2080595;28;31993;-64
2022/11/19 00:41:09;;;;;;;;;;;;;;;-2.62;97.09;101221.25;2073239;28;32514;-64
2022/11/19 00:42:13;;;;;;;;;;;;;;;-2.65;96.90;101218.53;2072840;28;19918;-64
2022/11/19 00:44:35;;;;;;;;;;;;;;;-2.66;97.16;101222.00;2071867;28;35458;-64
2022/11/19 00:45:40;;;;;;;;;;;;;;;-2.61;96.65;101229.16;2071707;28;39086;-64
2022/11/19 00:46:41;;;;;;;;;;;;;;;-2.60;95.50;101232.69;2072232;28;36217;-64
2022/11/19 00:47:43;;;;;;;;;;;;;;;-2.63;95.60;101227.34;2071887;28;32966;-63
2022/11/19 00:48:46;;;;;;;;;;;;;;;-2.63;95.71;101232.59;2072233;28;36714;-64
2022/11/19 00:49:47;;;;;;;;;;;;;;;-2.62;95.65;101229.13;2071962;28;35336;-64
2022/11/19 00:50:51;;;;;;;;;;;;;;;-2.65;96.08;101234.28;2072965;28;19965;-64
2022/11/19 00:51:54;;;;;;;;;;;;;;;-2.69;96.58;101234.16;2072216;28;28610;-64
2022/11/19 00:52:56;;;;;;;;;;;;;;;-2.70;96.87;101228.84;2072010;28;31160;-64
2022/11/19 00:54:00;;;;;;;;;;;;;;;-2.70;96.55;101231.47;2072063;28;36320;-63
2022/11/19 00:55:01;;;;;;;;;;;;;;;-2.74;96.76;101234.84;2072079;28;29252;-64
2022/11/19 00:56:06;;;;;;;;;;;;;;;-2.66;96.09;101250.81;2072010;28;36506;-63
2022/11/19 00:57:07;;;;;;;;;;;;;;;-2.68;96.08;101232.41;2072016;28;35861;-64
2022/11/19 00:58:09;;;;;;;;;;;;;;;-2.71;97.03;101235.84;2072335;28;34190;-64
2022/11/19 00:59:10;;;;;;;;;;;;;;;-2.71;96.57;101240.16;2072037;28;34567;-64
2022/11/19 01:00:15;;;;;;;;;;;;;;;-2.70;96.99;101236.72;2071760;28;38699;-63
2022/11/19 01:02:42;;;;;;;;;;;;;;;-2.78;97.57;101239.06;2064429;28;33308;-70
2022/11/19 01:03:44;;;;;;;;;;;;;;;-2.78;97.33;101249.56;2063671;28;32551;-71
2022/11/19 01:04:46;;;;;;;;;;;;;;;-2.80;96.60;101243.38;2064243;28;31685;-70
2022/11/19 01:05:47;;;;;;;;;;;;;;;-2.86;96.97;101244.88;2064659;28;19929;-70
2022/11/19 01:06:49;;;;;;;;;;;;;;;-2.91;98.33;101248.22;2063358;28;37747;-71
2022/11/19 01:07:52;;;;;;;;;;;;;;;-2.90;98.08;101244.75;2062960;28;38588;-69
2022/11/19 01:08:54;;;;;;;;;;;;;;;-2.90;98.26;101256.97;2064070;28;33520;-71
2022/11/19 01:09:55;;;;;;;;;;;;;;;-2.95;98.17;101248.91;2064214;28;19922;-69
2022/11/19 01:11:09;;;;;;;;;;;;;;;-2.97;98.38;101254.94;2064030;28;36514;-71
2022/11/19 01:12:11;;;;;;;;;;;;;;;-3.00;98.54;101252.22;2063053;28;38986;-70
2022/11/19 01:14:32;;;;;;;;;;;;;;;-3.06;98.86;101258.13;2064055;28;30733;-69
2022/11/19 01:15:34;;;;;;;;;;;;;;;-3.10;98.94;101249.25;2063752;28;34158;-69
2022/11/19 01:16:39;;;;;;;;;;;;;;;-3.07;99.31;101257.22;2064336;28;19922;-69
2022/11/19 01:17:40;;;;;;;;;;;;;;;-3.10;99.08;101262.34;2063746;28;37723;-69
2022/11/19 01:18:44;;;;;;;;;;;;;;;-3.08;98.97;101259.78;2063860;28;34540;-69
2022/11/19 01:19:45;;;;;;;;;;;;;;;-3.09;99.25;101265.84;2071055;28;28781;-69
2022/11/19 01:20:47;;;;;;;;;;;;;;;-3.08;98.70;101255.44;2071775;28;34445;-69
2022/11/19 01:21:49;;;;;;;;;;;;;;;-3.10;99.03;101257.09;2071920;28;19921;-69
2022/11/19 01:22:50;;;;;;;;;;;;;;;-3.09;99.43;101252.75;2071121;28;32737;-69
2022/11/19 01:23:52;;;;;;;;;;;;;;;-3.13;99.13;101256.97;2064042;28;31789;-69
2022/11/19 01:24:53;;;;;;;;;;;;;;;-3.15;100.00;101257.78;2063846;28;33431;-68
2022/11/19 01:25:55;;;;;;;;;;;;;;;-3.17;99.85;101264.69;2071585;28;32933;-69
2022/11/19 01:26:57;;;;;;;;;;;;;;;-3.19;99.83;101256.75;2071841;28;20664;-69
2022/11/19 01:27:59;;;;;;;;;;;;;;;-3.21;100.00;101250.59;2063790;28;40058;-69
2022/11/19 01:29:01;;;;;;;;;;;;;;;-3.16;99.46;101256.88;2063344;28;38215;-69
2022/11/19 01:30:04;;;;;;;;;;;;;;;-3.19;99.94;101263.75;2064225;28;23845;-68
2022/11/19 01:31:13;;;;;;;;;;;;;;;-3.22;99.53;101256.63;2063005;28;29278;-69
2022/11/19 01:32:15;;;;;;;;;;;;;;;-3.21;99.55;101262.75;2065344;28;23875;-68
2022/11/19 01:33:16;;;;;;;;;;;;;;;-3.23;99.08;101260.13;2065732;28;31182;-68
2022/11/19 01:34:18;;;;;;;;;;;;;;;-3.19;99.40;101263.75;2063652;28;36749;-68
2022/11/19 01:35:20;;;;;;;;;;;;;;;-3.21;99.24;101258.44;2064101;28;19976;-68
2022/11/19 01:36:24;;;;;;;;;;;;;;;-3.23;99.11;101261.81;2063710;28;35591;-69
2022/11/19 01:37:26;;;;;;;;;;;;;;;-3.22;99.19;101267.13;2063131;28;33655;-68
2022/11/19 01:38:28;;;;;;;;;;;;;;;-3.27;99.26;101264.34;2063920;28;32275;-66
2022/11/19 01:39:30;;;;;;;;;;;;;;;-3.27;99.49;101251.25;2063264;28;31883;-68
2022/11/19 01:40:32;;;;;;;;;;;;;;;-3.24;99.17;101271.41;2063944;28;33152;-68
2022/11/19 01:41:34;;;;;;;;;;;;;;;-3.25;99.19;101272.22;2063887;28;20770;-68
2022/11/19 01:42:52;;;;;;;;;;;;;;;-3.26;98.80;101265.22;2063499;28;35465;-68
2022/11/19 01:43:58;;;;;;;;;;;;;;;-3.26;99.12;101259.97;2064089;28;38580;-69
2022/11/19 01:45:05;;;;;;;;;;;;;;;-3.25;98.60;101261.75;2063750;28;27457;-68
2022/11/19 01:46:08;;;;;;;;;;;;;;;-3.29;98.37;101275.56;2063618;28;31346;-69
2022/11/19 01:47:10;;;;;;;;;;;;;;;-3.23;98.44;101270.59;2063742;28;30848;-69
2022/11/19 01:48:24;;;;;;;;;;;;;;;-3.26;98.16;101260.88;2063652;28;36246;-69
2022/11/19 01:49:28;;;;;;;;;;;;;;;-3.20;98.52;101265.44;2063630;28;40563;-69
2022/11/19 01:50:33;;;;;;;;;;;;;;;-3.21;98.05;101273.22;2063800;28;36025;-69
2022/11/19 01:51:45;;;;;;;;;;;;;;;-3.24;97.54;101262.66;2063223;28;39723;-68
2022/11/19 01:52:48;;;;;;;;;;;;;;;-3.27;98.56;101274.81;2063971;28;34203;-68
2022/11/19 01:53:52;;;;;;;;;;;;;;;-3.27;98.20;101268.66;2063284;28;37263;-68
2022/11/19 01:54:54;;;;;;;;;;;;;;;-3.27;97.76;101276.50;2063441;28;38647;-68
2022/11/19 01:56:02;;;;;;;;;;;;;;;-3.24;97.53;101276.63;2063057;28;37813;-67
2022/11/19 01:57:09;;;;;;;;;;;;;;;-3.26;97.21;101279.19;2064038;28;33876;-68
2022/11/19 01:58:15;;;;;;;;;;;;;;;-3.28;98.00;101283.47;2063514;28;28548;-68
2022/11/19 01:59:18;;;;;;;;;;;;;;;-3.26;98.03;101276.56;2064546;28;19922;-68
2022/11/19 02:00:21;;;;;;;;;;;;;;;-3.33;98.14;101282.41;2071264;28;19925;-68
2022/11/19 02:01:22;;;;;;;;;;;;;;;-3.34;97.73;101279.72;2071738;28;20671;-68
2022/11/19 02:02:24;;;;;;;;;;;;;;;-3.31;98.01;101277.25;2063557;28;29303;-68
2022/11/19 02:03:29;;;;;;;;;;;;;;;-3.28;98.01;101282.59;2063360;28;35540;-68
2022/11/19 02:04:31;;;;;;;;;;;;;;;-3.30;97.02;101285.16;2063381;28;26484;-68
2022/11/19 02:05:35;;;;;;;;;;;;;;;-3.23;96.40;101290.63;2063930;28;31785;-68
2022/11/19 02:06:37;;;;;;;;;;;;;;;-3.26;96.40;101287.06;2063578;28;35961;-68
2022/11/19 02:07:43;;;;;;;;;;;;;;;-3.26;96.54;101292.28;2063789;28;30541;-68
2022/11/19 02:08:51;;;;;;;;;;;;;;;-3.27;96.09;101289.59;2063726;28;24906;-68
2022/11/19 02:09:57;;;;;;;;;;;;;;;-3.24;95.88;101286.22;2063516;28;36110;-68
2022/11/19 02:11:24;;;;;;;;;;;;;;;-3.17;94.87;101272.53;2063355;28;40365;-68
2022/11/19 02:12:38;;;;;;;;;;;;;;;-3.19;95.02;101288.19;2064146;28;19921;-68
2022/11/19 02:13:57;;;;;;;;;;;;;;;-3.23;95.29;101288.91;2063561;28;38126;-67
2022/11/19 02:15:26;;;;;;;;;;;;;;;-3.24;94.98;101299.31;2064311;28;20792;-68
2022/11/19 02:16:38;;;;;;;;;;;;;;;-3.21;94.49;101295.09;2063170;28;40969;-68
2022/11/19 02:18:29;;;;;;;;;;;;;;;-3.24;94.32;101287.13;2071786;28;19922;-69
2022/11/19 02:19:51;;;;;;;;;;;;;;;-3.16;93.90;101295.25;2064681;28;33494;-68
2022/11/19 02:20:58;;;;;;;;;;;;;;;-3.21;94.32;101291.56;2071397;28;37705;-67
2022/11/19 02:22:22;;;;;;;;;;;;;;;-3.24;94.28;101297.59;2070157;28;38640;-67
2022/11/19 02:23:33;;;;;;;;;;;;;;;-3.25;94.45;101298.41;2063115;28;36571;-68
2022/11/19 02:24:50;;;;;;;;;;;;;;;-3.31;95.05;101306.03;2062834;28;42730;-69
2022/11/19 02:26:16;;;;;;;;;;;;;;;-3.29;94.26;101304.38;2064521;28;19976;-68
2022/11/19 02:27:33;;;;;;;;;;;;;;;-3.24;94.40;101307.19;2063187;28;40401;-68
2022/11/19 02:28:55;;;;;;;;;;;;;;;-3.29;94.17;101294.78;2063822;28;35653;-69
2022/11/19 02:30:11;;;;;;;;;;;;;;;-3.31;94.29;101308.66;2063530;28;39153;-68
2022/11/19 02:31:50;;;;;;;;;;;;;;;-3.31;94.31;101308.66;2063127;28;32393;-68
2022/11/19 02:33:20;;;;;;;;;;;;;;;-3.26;93.83;101302.75;2055911;28;19933;-68
2022/11/19 02:34:34;;;;;;;;;;;;;;;-3.22;93.09;101313.38;2056008;28;31972;-68
2022/11/19 02:35:45;;;;;;;;;;;;;;;-3.23;93.33;101306.31;2055312;28;36346;-69
2022/11/19 02:36:55;;;;;;;;;;;;;;;-3.26;93.49;101313.22;2056350;28;20005;-69
2022/11/19 02:38:03;;;;;;;;;;;;;;;-3.28;93.67;101314.91;2055459;28;36900;-69
2022/11/19 02:39:14;;;;;;;;;;;;;;;-3.22;93.36;101302.88;2055420;28;34198;-69
2022/11/19 02:40:24;;;;;;;;;;;;;;;-3.22;93.12;101309.00;2055579;28;34267;-69
2022/11/19 02:41:46;;;;;;;;;;;;;;;-3.27;92.84;101306.22;2056227;28;19926;-69
2022/11/19 02:43:03;;;;;;;;;;;;;;;-3.32;93.44;101312.09;2056384;28;20013;-69
2022/11/19 02:45:48;;;;;;;;;;;;;;;-3.36;93.40;101313.69;2056030;28;20609;-69
2022/11/19 02:46:54;;;;;;;;;;;;;;;-3.34;93.62;101309.44;2055491;28;36663;-68
2022/11/19 02:48:02;;;;;;;;;;;;;;;-3.40;93.43;101310.91;2054929;28;40234;-69
2022/11/19 02:49:05;;;;;;;;;;;;;;;-3.44;94.01;101309.91;2055584;28;32537;-69
2022/11/19 02:50:13;;;;;;;;;;;;;;;-3.46;93.57;101304.59;2055032;28;41664;-69
2022/11/19 02:51:17;;;;;;;;;;;;;;;-3.40;94.11;101308.28;2056233;28;19922;-69
2022/11/19 02:52:19;;;;;;;;;;;;;;;-3.44;93.74;101312.50;2055053;28;35602;-69
2022/11/19 02:53:22;;;;;;;;;;;;;;;-3.42;93.66;101309.97;2055182;28;39764;-69
2022/11/19 02:54:26;;;;;;;;;;;;;;;-3.46;93.52;101322.91;2055725;28;19922;-69
2022/11/19 02:55:28;;;;;;;;;;;;;;;-3.44;93.78;101317.75;2055378;28;32457;-71
2022/11/19 02:56:51;;;;;;;;;;;;;;;-3.39;93.86;101320.53;2055531;28;19922;-69
2022/11/19 02:57:53;;;;;;;;;;;;;;;-3.37;93.11;101314.53;2055578;28;35662;-69
2022/11/19 03:04:33;;;;;;;;;;;;;;;-3.49;93.23;101324.53;2062216;28;32498;-69
2022/11/19 03:05:40;;;;;;;;;;;;;;;-3.49;93.71;101330.63;2063178;28;28542;-69
2022/11/19 03:06:42;;;;;;;;;;;;;;;-3.49;93.73;101322.78;2063610;28;20636;-69
2022/11/19 03:07:44;;;;;;;;;;;;;;;-3.47;93.52;101326.34;2071031;28;33067;-69
2022/11/19 03:08:46;;;;;;;;;;;;;;;-3.36;92.92;101324.16;2070821;28;23366;-69
2022/11/19 03:09:54;;;;;;;;;;;;;;;-3.41;92.70;101323.13;2063340;28;34486;-69
2022/11/19 03:11:17;;;;;;;;;;;;;;;-3.43;93.32;101318.63;2062851;28;36268;-69
2022/11/19 03:12:43;;;;;;;;;;;;;;;-3.45;93.73;101331.66;2063484;28;25833;-69
2022/11/19 03:17:15;;;;;;;;;;;;;;;-3.53;94.61;101322.63;2062879;28;41512;-68
2022/11/19 03:18:26;;;;;;;;;;;;;;;-3.58;94.75;101327.66;2071304;28;20893;-69
2022/11/19 03:19:47;;;;;;;;;;;;;;;-3.60;95.26;101316.25;2069580;28;37303;-68
2022/11/19 03:21:02;;;;;;;;;;;;;;;-3.50;94.09;101322.72;2062318;28;40069;-69
2022/11/19 03:22:22;;;;;;;;;;;;;;;-3.55;94.32;101325.16;2062552;28;42860;-69
2022/11/19 03:23:32;;;;;;;;;;;;;;;-3.54;94.67;101326.94;2063656;28;19926;-69
2022/11/19 03:24:36;;;;;;;;;;;;;;;-3.56;94.55;101323.38;2063455;28;36209;-69
2022/11/19 03:25:43;;;;;;;;;;;;;;;-3.56;94.98;101332.97;2063083;28;30562;-68
2022/11/19 03:27:12;;;;;;;;;;;;;;;-3.58;95.02;101329.38;2063926;28;33549;-69
2022/11/19 03:28:19;;;;;;;;;;;;;;;-3.63;95.64;101330.91;2058122;28;19952;-68
2022/11/19 03:29:25;;;;;;;;;;;;;;;-3.61;95.14;101337.09;2064302;28;36706;-69
2022/11/19 03:30:29;;;;;;;;;;;;;;;-3.66;95.33;101329.06;2064719;28;33294;-69
2022/11/19 03:31:33;;;;;;;;;;;;;;;-3.69;95.85;101331.56;2063782;28;31061;-69
2022/11/19 03:32:42;;;;;;;;;;;;;;;-3.75;95.95;101324.38;2064534;28;30885;-69
2022/11/19 03:33:48;;;;;;;;;;;;;;;-3.74;96.31;101333.97;2064173;28;33001;-69
2022/11/19 03:34:58;;;;;;;;;;;;;;;-3.74;95.92;101318.28;2064209;28;35126;-69
2022/11/19 03:36:25;;;;;;;;;;;;;;;-3.74;96.38;101323.50;2064675;28;19918;-69
2022/11/19 03:37:33;;;;;;;;;;;;;;;-3.77;96.59;101332.97;2064121;28;41536;-69
2022/11/19 03:38:45;;;;;;;;;;;;;;;-3.81;96.34;101338.91;2064848;28;20758;-69
2022/11/19 03:39:51;;;;;;;;;;;;;;;-3.78;96.62;101336.44;2064420;28;34360;-68
2022/11/19 03:40:54;;;;;;;;;;;;;;;-3.84;96.87;101331.81;2064391;28;39122;-69
2022/11/19 03:41:56;;;;;;;;;;;;;;;-3.80;96.33;101338.06;2064414;28;34729;-69
2022/11/19 03:43:00;;;;;;;;;;;;;;;-3.84;96.90;101337.94;2065196;28;19953;-69
2022/11/19 03:44:10;;;;;;;;;;;;;;;-3.86;96.99;101334.38;2064151;28;39522;-69
2022/11/19 03:45:18;;;;;;;;;;;;;;;-3.91;97.02;101341.13;2064167;28;40176;-69
2022/11/19 03:46:22;;;;;;;;;;;;;;;-3.89;97.34;101339.47;2064354;28;31531;-69
2022/11/19 03:47:29;;;;;;;;;;;;;;;-3.89;97.02;101342.09;2064488;28;35828;-69
2022/11/19 03:48:31;;;;;;;;;;;;;;;-3.91;97.41;101342.84;2064417;28;40457;-69
2022/11/19 03:49:39;;;;;;;;;;;;;;;-3.89;97.18;101347.31;2065318;28;19979;-69
2022/11/19 03:50:53;;;;;;;;;;;;;;;-3.90;97.02;101342.91;2064635;28;29250;-69
2022/11/19 03:52:09;;;;;;;;;;;;;;;-3.92;97.29;101344.56;2064663;28;33610;-69
2022/11/19 03:53:10;;;;;;;;;;;;;;;-3.93;97.27;101349.72;2064773;28;31731;-70
2022/11/19 03:54:13;;;;;;;;;;;;;;;-3.96;97.38;101345.28;2064691;28;36962;-71
2022/11/19 03:55:17;;;;;;;;;;;;;;;-3.96;97.33;101344.38;2064394;28;39001;-69
2022/11/19 03:56:23;;;;;;;;;;;;;;;-3.92;97.57;101354.16;2065197;28;20756;-69
2022/11/19 03:57:26;;;;;;;;;;;;;;;-3.94;97.39;101351.47;2064624;28;36548;-69
2022/11/19 03:58:28;;;;;;;;;;;;;;;-3.92;97.56;101362.88;2064807;28;29827;-69
2022/11/19 03:59:30;;;;;;;;;;;;;;;-3.93;97.24;101350.66;2065231;28;19949;-70
2022/11/19 04:00:32;;;;;;;;;;;;;;;-3.91;97.38;101362.06;2064625;28;34972;-69
2022/11/19 04:01:36;;;;;;;;;;;;;;;-3.91;97.08;101366.38;2064225;28;33679;-69
2022/11/19 04:02:40;;;;;;;;;;;;;;;-3.95;97.24;101360.13;2064730;28;33623;-69
2022/11/19 04:04:34;;;;;;;;;;;;;;;-3.92;97.37;101362.00;2064559;28;38941;-69
2022/11/19 04:05:06;;;;;;;;;;;;;;;-3.94;96.95;101359.31;2064914;28;19922;-69
2022/11/19 04:06:08;;;;;;;;;;;;;;;-3.92;97.01;101364.59;2065008;28;20001;-69
2022/11/19 04:07:16;;;;;;;;;;;;;;;-3.95;96.98;101365.34;2064067;28;32794;-69
2022/11/19 04:08:21;;;;;;;;;;;;;;;-3.92;97.13;101377.69;2064930;28;19922;-69
2022/11/19 04:09:22;;;;;;;;;;;;;;;-3.95;97.10;101367.97;2071845;28;30295;-69
2022/11/19 04:10:24;;;;;;;;;;;;;;;-3.98;96.62;101365.25;2071606;28;37449;-69
2022/11/19 04:11:25;;;;;;;;;;;;;;;-3.91;97.21;101369.91;2064006;28;35349;-69
2022/11/19 04:12:26;;;;;;;;;;;;;;;-3.91;96.74;101362.06;2064924;28;19922;-69
2022/11/19 04:13:27;;;;;;;;;;;;;;;-3.91;96.50;101367.28;2064135;28;36924;-69
2022/11/19 04:14:29;;;;;;;;;;;;;;;-3.88;96.72;101370.00;2063938;28;27752;-69
2022/11/19 04:15:30;;;;;;;;;;;;;;;-3.87;96.15;101374.44;2063283;28;36814;-69
2022/11/19 04:16:32;;;;;;;;;;;;;;;-3.90;96.14;101376.91;2063839;28;33837;-69
2022/11/19 04:17:33;;;;;;;;;;;;;;;-3.91;96.26;101372.53;2064243;28;34468;-69
2022/11/19 04:18:35;;;;;;;;;;;;;;;-3.89;96.24;101376.09;2064307;28;30099;-69
2022/11/19 04:19:37;;;;;;;;;;;;;;;-3.88;95.77;101370.00;2064078;28;33994;-69
2022/11/19 04:20:38;;;;;;;;;;;;;;;-3.88;96.16;101372.63;2064289;28;33219;-69
2022/11/19 04:21:40;;;;;;;;;;;;;;;-3.90;96.04;101373.41;2063774;28;36049;-69
2022/11/19 04:22:41;;;;;;;;;;;;;;;-3.92;96.11;101368.09;2064074;28;32744;-69
2022/11/19 04:23:43;;;;;;;;;;;;;;;-3.91;96.44;101372.53;2064052;28;32356;-69
2022/11/19 04:24:44;;;;;;;;;;;;;;;-3.91;96.20;101385.59;2064175;28;38479;-69
2022/11/19 04:25:46;;;;;;;;;;;;;;;-3.90;96.14;101379.53;2064420;28;19921;-69
2022/11/19 04:26:48;;;;;;;;;;;;;;;-3.92;96.04;101375.94;2064380;28;36278;-69
2022/11/19 04:27:49;;;;;;;;;;;;;;;-3.89;95.96;101385.66;2064131;28;33708;-69
2022/11/19 04:28:51;;;;;;;;;;;;;;;-3.94;95.71;101382.84;2064825;28;19929;-69
2022/11/19 04:29:52;;;;;;;;;;;;;;;-3.89;95.90;101390.91;2064108;28;37503;-69
2022/11/19 04:30:54;;;;;;;;;;;;;;;-3.86;95.38;101384.09;2064091;28;33820;-70
2022/11/19 04:31:55;;;;;;;;;;;;;;;-3.90;95.65;101383.88;2063857;28;32830;-69
2022/11/19 04:32:59;;;;;;;;;;;;;;;-3.90;95.79;101384.75;2064509;28;25364;-69
2022/11/19 04:34:01;;;;;;;;;;;;;;;-3.89;95.29;101381.31;2064568;28;21032;-69
2022/11/19 04:35:03;;;;;;;;;;;;;;;-3.89;95.24;101383.94;2064590;28;26570;-69
2022/11/19 04:36:04;;;;;;;;;;;;;;;-3.88;95.42;101384.81;2064262;28;34706;-69
2022/11/19 04:37:06;;;;;;;;;;;;;;;-3.91;95.75;101382.06;2064147;28;33857;-68
2022/11/19 04:38:08;;;;;;;;;;;;;;;-3.92;95.57;101385.53;2064229;28;34912;-69
2022/11/19 04:39:11;;;;;;;;;;;;;;;-3.91;95.79;101380.38;2063448;28;34292;-69
2022/11/19 04:40:13;;;;;;;;;;;;;;;-3.90;95.45;101389.09;2063970;28;33417;-69
2022/11/19 04:41:15;;;;;;;;;;;;;;;-3.92;95.28;101386.41;2064728;28;19948;-69
2022/11/19 04:42:17;;;;;;;;;;;;;;;-3.89;95.41;101391.78;2063438;28;40180;-68
2022/11/19 04:43:18;;;;;;;;;;;;;;;-3.92;95.45;101390.75;2064263;28;35400;-69
2022/11/19 04:44:20;;;;;;;;;;;;;;;-3.95;95.21;101388.88;2071958;28;28646;-69
2022/11/19 04:45:21;;;;;;;;;;;;;;;-3.95;95.57;101399.34;2071549;28;24958;-69
2022/11/19 04:46:23;;;;;;;;;;;;;;;-3.95;95.28;101391.50;2064581;28;19933;-69
2022/11/19 04:47:24;;;;;;;;;;;;;;;-3.94;95.57;101392.41;2064041;28;33891;-69
2022/11/19 04:48:26;;;;;;;;;;;;;;;-3.97;95.69;101395.78;2064104;28;30539;-69
2022/11/19 04:49:28;;;;;;;;;;;;;;;-4.00;95.68;101395.66;2071651;28;31339;-69
2022/11/19 04:50:29;;;;;;;;;;;;;;;-4.04;95.45;101393.72;2071591;28;36581;-69
2022/11/19 04:51:31;;;;;;;;;;;;;;;-4.07;96.06;101386.66;2064005;28;27593;-68
2022/11/19 04:52:32;;;;;;;;;;;;;;;-4.01;95.88;101399.09;2063999;28;27542;-69
2022/11/19 04:53:39;;;;;;;;;;;;;;;-3.97;95.79;101393.16;2064818;28;20700;-68
2022/11/19 04:54:41;;;;;;;;;;;;;;;-4.02;95.72;101394.69;2064104;28;31323;-69
2022/11/19 04:55:45;;;;;;;;;;;;;;;-4.01;95.99;101393.88;2064504;28;19926;-68
2022/11/19 04:56:47;;;;;;;;;;;;;;;-4.03;95.77;101388.56;2063779;28;38817;-68
2022/11/19 04:57:50;;;;;;;;;;;;;;;-4.10;95.70;101394.34;2064820;28;24536;-69
2022/11/19 04:58:52;;;;;;;;;;;;;;;-4.06;95.77;101390.16;2063942;28;30130;-69
2022/11/19 04:59:53;;;;;;;;;;;;;;;-4.06;95.84;101387.53;2064579;28;32307;-69
2022/11/19 05:00:56;;;;;;;;;;;;;;;-4.07;95.86;101375.31;2063324;28;37763;-69
2022/11/19 05:01:57;;;;;;;;;;;;;;;-4.00;95.67;101386.91;2063914;28;38432;-69
2022/11/19 05:02:59;;;;;;;;;;;;;;;-4.03;95.41;101382.44;2063910;28;42499;-69
2022/11/19 05:04:01;;;;;;;;;;;;;;;-4.01;95.36;101383.41;2064158;28;19993;-69
2022/11/19 05:05:05;;;;;;;;;;;;;;;-4.02;95.49;101397.28;2063931;28;34965;-69
2022/11/19 05:06:07;;;;;;;;;;;;;;;-3.94;94.90;101385.47;2055549;28;38980;-69
2022/11/19 05:07:08;;;;;;;;;;;;;;;-3.99;95.04;101393.94;2055948;28;36821;-68
2022/11/19 05:08:10;;;;;;;;;;;;;;;-4.01;95.49;101387.75;2055955;28;29200;-69
2022/11/19 05:09:11;;;;;;;;;;;;;;;-4.01;94.91;101396.47;2055474;28;37661;-69
2022/11/19 05:10:13;;;;;;;;;;;;;;;-4.04;95.01;101386.81;2055758;28;35729;-69
2022/11/19 05:11:14;;;;;;;;;;;;;;;-4.02;95.65;101386.84;2071163;28;32271;-69
2022/11/19 05:12:16;;;;;;;;;;;;;;;-3.97;95.12;101387.06;2070922;28;37694;-69
2022/11/19 05:13:17;;;;;;;;;;;;;;;-4.00;94.79;101389.53;2064097;28;22063;-69
2022/11/19 05:14:19;;;;;;;;;;;;;;;-4.02;95.08;101384.22;2063713;28;36384;-68
2022/11/19 05:15:21;;;;;;;;;;;;;;;-4.04;95.42;101388.50;2064138;28;31565;-69
2022/11/19 05:16:22;;;;;;;;;;;;;;;-4.00;94.87;101389.53;2063785;28;31194;-69
2022/11/19 05:17:24;;;;;;;;;;;;;;;-4.01;94.87;101391.25;2063780;28;38466;-70
2022/11/19 05:18:27;;;;;;;;;;;;;;;-3.99;94.67;101394.81;2064084;28;19918;-69
2022/11/19 05:19:29;;;;;;;;;;;;;;;-3.99;94.61;101388.72;2063901;28;32358;-68
2022/11/19 05:20:31;;;;;;;;;;;;;;;-4.03;95.04;101387.69;2063993;28;33844;-69
2022/11/19 05:21:32;;;;;;;;;;;;;;;-4.00;94.85;101385.22;2064227;28;19925;-69
2022/11/19 05:22:34;;;;;;;;;;;;;;;-4.01;94.62;101399.09;2063592;28;42398;-69
2022/11/19 05:23:35;;;;;;;;;;;;;;;-4.01;94.83;101395.59;2071241;28;35994;-68
2022/11/19 05:24:37;;;;;;;;;;;;;;;-3.99;94.58;101394.81;2070984;28;30966;-69
2022/11/19 05:25:38;;;;;;;;;;;;;;;-3.97;94.27;101392.28;2063976;28;34269;-68
2022/11/19 05:26:40;;;;;;;;;;;;;;;-4.00;94.46;101397.38;2063611;28;37227;-69
2022/11/19 05:27:41;;;;;;;;;;;;;;;-4.06;94.70;101396.28;2063591;28;35644;-68
2022/11/19 05:28:43;;;;;;;;;;;;;;;-4.01;94.89;101401.72;2064678;28;19928;-69
2022/11/19 05:29:45;;;;;;;;;;;;;;;-4.02;94.97;101392.06;2064059;28;32093;-69
2022/11/19 05:30:46;;;;;;;;;;;;;;;-4.02;94.93;101397.28;2063840;28;30576;-69
2022/11/19 05:31:48;;;;;;;;;;;;;;;-4.08;94.93;101403.16;2064384;28;19972;-69
2022/11/19 05:32:50;;;;;;;;;;;;;;;-4.06;95.17;101398.00;2070830;28;33157;-69
2022/11/19 05:33:51;;;;;;;;;;;;;;;-4.06;95.00;101401.50;2070843;28;35479;-69
2022/11/19 05:34:53;;;;;;;;;;;;;;;-4.12;94.91;101406.47;2063915;28;21795;-69
2022/11/19 05:35:54;;;;;;;;;;;;;;;-4.14;95.64;101400.28;2063883;28;36378;-69
2022/11/19 05:36:57;;;;;;;;;;;;;;;-4.16;96.09;101407.19;2063821;28;23728;-69
2022/11/19 05:37:59;;;;;;;;;;;;;;;-4.23;95.92;101406.00;2063565;28;40945;-70
2022/11/19 05:39:03;;;;;;;;;;;;;;;-4.16;96.23;101411.50;2063521;28;37017;-69
2022/11/19 05:40:05;;;;;;;;;;;;;;;-4.24;96.52;101414.66;2063699;28;30884;-69
2022/11/19 05:41:07;;;;;;;;;;;;;;;-4.25;96.80;101414.63;2063594;28;21743;-69
2022/11/19 05:42:08;;;;;;;;;;;;;;;-4.27;96.78;101405.78;2064326;28;37525;-69
2022/11/19 05:43:12;;;;;;;;;;;;;;;-4.27;97.19;101403.16;2063839;28;20000;-69
2022/11/19 05:44:14;;;;;;;;;;;;;;;-4.28;97.47;101404.91;2063822;28;37222;-70
2022/11/19 05:45:17;;;;;;;;;;;;;;;-4.28;97.29;101402.28;2064438;28;20745;-69
2022/11/19 05:46:19;;;;;;;;;;;;;;;-4.26;97.16;101411.09;2063987;28;19955;-69
2022/11/19 05:47:21;;;;;;;;;;;;;;;-4.34;97.32;101407.25;2063360;28;35805;-69
2022/11/19 05:48:22;;;;;;;;;;;;;;;-4.40;97.57;101409.56;2064431;28;19921;-69
2022/11/19 05:49:24;;;;;;;;;;;;;;;-4.36;97.32;101403.69;2063264;28;40404;-69
2022/11/19 05:50:26;;;;;;;;;;;;;;;-4.36;97.58;101408.91;2063014;28;29597;-70